sensor_id;sensor_type;location;lat;lon;timestamp;temperature;humidity
30049;DHT22;16879;50.852;15.602;2022-09-12T00:01:59;13.80;99.90
30049;DHT22;16879;50.852;15.602;2022-09-12T00:04:26;13.80;99.90
30049;DHT22;16879;50.852;15.602;2022-09-12T00:06:53;13.80;99.90
30049;DHT22;16879;50.852;15.602;2022-09-12T00:09:19;13.80;99.90
30049;DHT22;16879;50.852;15.602;2022-09-12T00:11:45;13.80;99.90
30049;DHT22;16879;50.852;15.602;2022-09-12T00:14:16;13.80;99.90
30049;DHT22;16879;50.852;15.602;2022-09-12T00:16:43;13.80;99.90
30049;DHT22;16879;50.852;15.602;2022-09-12T00:19:10;13.80;99.90
30049;DHT22;16879;50.852;15.602;2022-09-12T00:21:38;13.80;99.90
30049;DHT22;16879;50.852;15.602;2022-09-12T00:24:05;13.80;99.90
30049;DHT22;16879;50.852;15.602;2022-09-12T00:26:32;13.80;99.90
30049;DHT22;16879;50.852;15.602;2022-09-12T00:28:58;13.80;99.90
30049;DHT22;16879;50.852;15.602;2022-09-12T00:31:25;13.70;99.90
30049;DHT22;16879;50.852;15.602;2022-09-12T00:33:54;13.70;99.90
30049;DHT22;16879;50.852;15.602;2022-09-12T00:36:22;13.70;99.90
30049;DHT22;16879;50.852;15.602;2022-09-12T00:38:49;13.70;99.90
30049;DHT22;16879;50.852;15.602;2022-09-12T00:41:17;13.70;99.90
30049;DHT22;16879;50.852;15.602;2022-09-12T00:43:52;13.70;99.90
30049;DHT22;16879;50.852;15.602;2022-09-12T00:49:15;13.70;99.90
30049;DHT22;16879;50.852;15.602;2022-09-12T00:51:49;13.70;99.90
30049;DHT22;16879;50.852;15.602;2022-09-12T00:54:20;13.70;99.90
30049;DHT22;16879;50.852;15.602;2022-09-12T00:56:49;13.70;99.90
30049;DHT22;16879;50.852;15.602;2022-09-12T00:59:31;13.70;99.90
30049;DHT22;16879;50.852;15.602;2022-09-12T01:01:59;13.70;99.90
30049;DHT22;16879;50.852;15.602;2022-09-12T01:04:25;13.70;99.90
30049;DHT22;16879;50.852;15.602;2022-09-12T01:06:55;13.70;99.90
30049;DHT22;16879;50.852;15.602;2022-09-12T01:09:22;13.70;99.90
30049;DHT22;16879;50.852;15.602;2022-09-12T01:11:50;13.60;99.90
30049;DHT22;16879;50.852;15.602;2022-09-12T01:14:18;13.60;99.90
30049;DHT22;16879;50.852;15.602;2022-09-12T01:16:48;13.60;99.90
30049;DHT22;16879;50.852;15.602;2022-09-12T01:22:17;13.60;99.90
30049;DHT22;16879;50.852;15.602;2022-09-12T01:25:30;13.60;99.90
30049;DHT22;16879;50.852;15.602;2022-09-12T01:33:34;13.50;99.90
30049;DHT22;16879;50.852;15.602;2022-09-12T01:38:47;13.40;99.90
30049;DHT22;16879;50.852;15.602;2022-09-12T01:41:20;13.50;99.90
30049;DHT22;16879;50.852;15.602;2022-09-12T01:46:54;13.50;99.90
30049;DHT22;16879;50.852;15.602;2022-09-12T01:49:30;13.50;99.90
30049;DHT22;16879;50.852;15.602;2022-09-12T01:55:01;13.50;99.90
30049;DHT22;16879;50.852;15.602;2022-09-12T01:57:34;13.50;99.90
30049;DHT22;16879;50.852;15.602;2022-09-12T02:00:09;13.50;99.90
30049;DHT22;16879;50.852;15.602;2022-09-12T02:02:46;13.50;99.90
30049;DHT22;16879;50.852;15.602;2022-09-12T02:05:37;13.40;99.90
30049;DHT22;16879;50.852;15.602;2022-09-12T02:08:37;13.40;99.90
30049;DHT22;16879;50.852;15.602;2022-09-12T02:11:07;13.40;99.90
30049;DHT22;16879;50.852;15.602;2022-09-12T02:13:51;13.40;99.90
30049;DHT22;16879;50.852;15.602;2022-09-12T02:16:25;13.40;99.90
30049;DHT22;16879;50.852;15.602;2022-09-12T02:18:58;13.40;99.90
30049;DHT22;16879;50.852;15.602;2022-09-12T02:21:27;13.40;99.90
30049;DHT22;16879;50.852;15.602;2022-09-12T02:24:00;13.40;99.90
30049;DHT22;16879;50.852;15.602;2022-09-12T02:26:43;13.30;99.90
30049;DHT22;16879;50.852;15.602;2022-09-12T02:31:48;13.30;99.90
30049;DHT22;16879;50.852;15.602;2022-09-12T02:37:05;13.30;99.90
30049;DHT22;16879;50.852;15.602;2022-09-12T02:39:32;13.30;99.90
30049;DHT22;16879;50.852;15.602;2022-09-12T02:42:01;13.30;99.90
30049;DHT22;16879;50.852;15.602;2022-09-12T02:44:28;13.30;99.90
30049;DHT22;16879;50.852;15.602;2022-09-12T02:47:03;13.30;99.90
30049;DHT22;16879;50.852;15.602;2022-09-12T02:51:58;13.40;99.90
30049;DHT22;16879;50.852;15.602;2022-09-12T02:54:25;13.40;99.90
30049;DHT22;16879;50.852;15.602;2022-09-12T02:56:51;13.40;99.90
30049;DHT22;16879;50.852;15.602;2022-09-12T02:59:19;13.40;99.90
30049;DHT22;16879;50.852;15.602;2022-09-12T03:13:59;13.40;99.90
30049;DHT22;16879;50.852;15.602;2022-09-12T03:19:32;13.40;99.90
30049;DHT22;16879;50.852;15.602;2022-09-12T03:22:15;13.40;99.90
30049;DHT22;16879;50.852;15.602;2022-09-12T03:24:57;13.40;99.90
30049;DHT22;16879;50.852;15.602;2022-09-12T03:27:28;13.40;99.90
30049;DHT22;16879;50.852;15.602;2022-09-12T03:29:55;13.40;99.90
30049;DHT22;16879;50.852;15.602;2022-09-12T03:32:47;13.40;99.90
30049;DHT22;16879;50.852;15.602;2022-09-12T03:35:14;13.40;99.90
30049;DHT22;16879;50.852;15.602;2022-09-12T03:37:41;13.40;99.90
30049;DHT22;16879;50.852;15.602;2022-09-12T03:40:09;13.40;99.90
30049;DHT22;16879;50.852;15.602;2022-09-12T03:42:35;13.40;99.90
30049;DHT22;16879;50.852;15.602;2022-09-12T03:45:01;13.40;99.90
30049;DHT22;16879;50.852;15.602;2022-09-12T03:47:28;13.40;99.90
30049;DHT22;16879;50.852;15.602;2022-09-12T03:49:54;13.30;99.90
30049;DHT22;16879;50.852;15.602;2022-09-12T03:52:20;13.40;99.90
30049;DHT22;16879;50.852;15.602;2022-09-12T03:54:47;13.40;99.90
30049;DHT22;16879;50.852;15.602;2022-09-12T03:57:14;13.30;99.90
30049;DHT22;16879;50.852;15.602;2022-09-12T03:59:40;13.30;99.90
30049;DHT22;16879;50.852;15.602;2022-09-12T04:02:06;13.30;99.90
30049;DHT22;16879;50.852;15.602;2022-09-12T04:04:34;13.30;99.90
30049;DHT22;16879;50.852;15.602;2022-09-12T04:07:00;13.30;99.90
30049;DHT22;16879;50.852;15.602;2022-09-12T04:09:26;13.30;99.90
30049;DHT22;16879;50.852;15.602;2022-09-12T04:11:52;13.30;99.90
30049;DHT22;16879;50.852;15.602;2022-09-12T04:14:18;13.20;99.90
30049;DHT22;16879;50.852;15.602;2022-09-12T04:16:44;13.20;99.90
30049;DHT22;16879;50.852;15.602;2022-09-12T04:19:11;13.10;99.90
30049;DHT22;16879;50.852;15.602;2022-09-12T04:21:37;13.10;99.90
30049;DHT22;16879;50.852;15.602;2022-09-12T04:24:04;13.10;99.90
30049;DHT22;16879;50.852;15.602;2022-09-12T04:26:30;13.10;99.90
30049;DHT22;16879;50.852;15.602;2022-09-12T04:28:56;13.00;99.90
30049;DHT22;16879;50.852;15.602;2022-09-12T04:31:23;13.00;99.90
30049;DHT22;16879;50.852;15.602;2022-09-12T04:33:58;12.90;99.90
30049;DHT22;16879;50.852;15.602;2022-09-12T04:36:25;12.90;99.90
30049;DHT22;16879;50.852;15.602;2022-09-12T04:38:52;12.90;99.90
30049;DHT22;16879;50.852;15.602;2022-09-12T04:41:24;12.90;99.90
30049;DHT22;16879;50.852;15.602;2022-09-12T04:43:53;12.90;99.90
30049;DHT22;16879;50.852;15.602;2022-09-12T04:46:20;12.90;99.90
30049;DHT22;16879;50.852;15.602;2022-09-12T04:48:48;12.90;99.90
30049;DHT22;16879;50.852;15.602;2022-09-12T04:53:41;12.90;99.90
30049;DHT22;16879;50.852;15.602;2022-09-12T04:56:08;12.90;99.90
30049;DHT22;16879;50.852;15.602;2022-09-12T04:58:35;12.90;99.90
30049;DHT22;16879;50.852;15.602;2022-09-12T05:01:13;12.90;99.90
30049;DHT22;16879;50.852;15.602;2022-09-12T05:03:42;12.90;99.90
30049;DHT22;16879;50.852;15.602;2022-09-12T05:06:13;13.00;99.90
30049;DHT22;16879;50.852;15.602;2022-09-12T05:08:40;13.00;99.90
30049;DHT22;16879;50.852;15.602;2022-09-12T05:11:11;13.00;99.90
30049;DHT22;16879;50.852;15.602;2022-09-12T05:13:40;13.00;99.90
30049;DHT22;16879;50.852;15.602;2022-09-12T05:16:07;13.00;99.90
30049;DHT22;16879;50.852;15.602;2022-09-12T05:18:36;13.00;99.90
30049;DHT22;16879;50.852;15.602;2022-09-12T05:21:05;12.90;99.90
30049;DHT22;16879;50.852;15.602;2022-09-12T05:23:34;13.00;99.90
30049;DHT22;16879;50.852;15.602;2022-09-12T05:26:02;13.00;99.90
30049;DHT22;16879;50.852;15.602;2022-09-12T05:28:32;13.00;99.90
30049;DHT22;16879;50.852;15.602;2022-09-12T05:31:04;13.00;99.90
30049;DHT22;16879;50.852;15.602;2022-09-12T05:33:32;13.10;99.90
30049;DHT22;16879;50.852;15.602;2022-09-12T05:35:59;13.10;99.90
30049;DHT22;16879;50.852;15.602;2022-09-12T05:38:25;13.10;99.90
30049;DHT22;16879;50.852;15.602;2022-09-12T05:40:53;13.20;99.90
30049;DHT22;16879;50.852;15.602;2022-09-12T05:43:20;13.20;99.90
30049;DHT22;16879;50.852;15.602;2022-09-12T05:45:46;13.20;99.90
30049;DHT22;16879;50.852;15.602;2022-09-12T05:48:12;13.30;99.90
30049;DHT22;16879;50.852;15.602;2022-09-12T05:50:38;13.30;99.90
30049;DHT22;16879;50.852;15.602;2022-09-12T05:53:04;13.40;99.90
30049;DHT22;16879;50.852;15.602;2022-09-12T05:55:30;13.50;99.90
30049;DHT22;16879;50.852;15.602;2022-09-12T05:57:56;13.50;99.90
30049;DHT22;16879;50.852;15.602;2022-09-12T06:00:22;13.50;99.90
30049;DHT22;16879;50.852;15.602;2022-09-12T06:02:52;13.60;99.90
30049;DHT22;16879;50.852;15.602;2022-09-12T06:05:18;13.50;99.90
30049;DHT22;16879;50.852;15.602;2022-09-12T06:07:45;13.60;99.90
30049;DHT22;16879;50.852;15.602;2022-09-12T06:10:13;13.60;99.90
30049;DHT22;16879;50.852;15.602;2022-09-12T06:12:41;13.70;99.90
30049;DHT22;16879;50.852;15.602;2022-09-12T06:15:08;13.70;99.90
30049;DHT22;16879;50.852;15.602;2022-09-12T06:17:35;13.70;99.90
30049;DHT22;16879;50.852;15.602;2022-09-12T06:20:01;13.80;99.90
30049;DHT22;16879;50.852;15.602;2022-09-12T06:22:28;13.80;99.90
30049;DHT22;16879;50.852;15.602;2022-09-12T06:24:55;13.80;99.90
30049;DHT22;16879;50.852;15.602;2022-09-12T06:27:21;13.80;99.90
30049;DHT22;16879;50.852;15.602;2022-09-12T06:29:47;13.90;99.90
30049;DHT22;16879;50.852;15.602;2022-09-12T06:32:13;13.90;99.90
30049;DHT22;16879;50.852;15.602;2022-09-12T06:34:39;13.90;99.90
30049;DHT22;16879;50.852;15.602;2022-09-12T06:37:05;13.90;99.90
30049;DHT22;16879;50.852;15.602;2022-09-12T06:39:31;13.90;99.90
30049;DHT22;16879;50.852;15.602;2022-09-12T06:41:57;14.00;99.90
30049;DHT22;16879;50.852;15.602;2022-09-12T06:44:23;13.90;99.90
30049;DHT22;16879;50.852;15.602;2022-09-12T06:46:50;14.00;99.90
30049;DHT22;16879;50.852;15.602;2022-09-12T06:49:18;14.00;99.90
30049;DHT22;16879;50.852;15.602;2022-09-12T06:51:44;14.10;99.90
30049;DHT22;16879;50.852;15.602;2022-09-12T06:54:14;14.00;99.90
30049;DHT22;16879;50.852;15.602;2022-09-12T06:56:42;14.10;99.90
30049;DHT22;16879;50.852;15.602;2022-09-12T06:59:09;14.20;99.90
30049;DHT22;16879;50.852;15.602;2022-09-12T07:01:35;14.10;99.90
30049;DHT22;16879;50.852;15.602;2022-09-12T07:04:03;14.20;99.90
30049;DHT22;16879;50.852;15.602;2022-09-12T07:06:40;14.20;99.90
30049;DHT22;16879;50.852;15.602;2022-09-12T07:09:09;14.20;99.90
30049;DHT22;16879;50.852;15.602;2022-09-12T07:11:38;14.20;99.90
30049;DHT22;16879;50.852;15.602;2022-09-12T07:14:06;14.30;99.90
30049;DHT22;16879;50.852;15.602;2022-09-12T07:16:36;14.20;99.90
30049;DHT22;16879;50.852;15.602;2022-09-12T07:19:03;14.30;99.90
30049;DHT22;16879;50.852;15.602;2022-09-12T07:21:30;14.30;99.90
30049;DHT22;16879;50.852;15.602;2022-09-12T07:23:57;14.30;99.90
30049;DHT22;16879;50.852;15.602;2022-09-12T07:26:26;14.40;99.90
30049;DHT22;16879;50.852;15.602;2022-09-12T07:28:53;14.40;99.90
30049;DHT22;16879;50.852;15.602;2022-09-12T07:31:22;14.40;99.90
30049;DHT22;16879;50.852;15.602;2022-09-12T07:33:49;14.40;99.90
30049;DHT22;16879;50.852;15.602;2022-09-12T07:36:17;14.50;99.90
30049;DHT22;16879;50.852;15.602;2022-09-12T07:38:44;14.50;99.90
30049;DHT22;16879;50.852;15.602;2022-09-12T07:41:12;14.50;99.90
30049;DHT22;16879;50.852;15.602;2022-09-12T07:43:40;14.60;99.90
30049;DHT22;16879;50.852;15.602;2022-09-12T07:46:10;14.70;99.90
30049;DHT22;16879;50.852;15.602;2022-09-12T07:48:37;14.80;99.90
30049;DHT22;16879;50.852;15.602;2022-09-12T07:51:08;14.80;99.90
30049;DHT22;16879;50.852;15.602;2022-09-12T07:53:37;14.90;99.90
30049;DHT22;16879;50.852;15.602;2022-09-12T07:56:05;15.00;99.90
30049;DHT22;16879;50.852;15.602;2022-09-12T07:58:33;15.00;99.90
30049;DHT22;16879;50.852;15.602;2022-09-12T08:01:04;15.10;99.90
30049;DHT22;16879;50.852;15.602;2022-09-12T08:03:30;15.20;99.90
30049;DHT22;16879;50.852;15.602;2022-09-12T08:06:13;15.10;99.90
30049;DHT22;16879;50.852;15.602;2022-09-12T08:08:42;15.10;99.90
30049;DHT22;16879;50.852;15.602;2022-09-12T08:11:11;15.20;99.90
30049;DHT22;16879;50.852;15.602;2022-09-12T08:13:39;15.20;99.90
30049;DHT22;16879;50.852;15.602;2022-09-12T08:16:07;15.30;99.90
30049;DHT22;16879;50.852;15.602;2022-09-12T08:18:37;15.30;99.90
30049;DHT22;16879;50.852;15.602;2022-09-12T08:21:21;15.40;99.90
30049;DHT22;16879;50.852;15.602;2022-09-12T08:23:53;15.40;99.90
30049;DHT22;16879;50.852;15.602;2022-09-12T08:26:19;15.40;99.90
30049;DHT22;16879;50.852;15.602;2022-09-12T08:28:46;15.40;99.90
30049;DHT22;16879;50.852;15.602;2022-09-12T08:31:14;15.40;99.90
30049;DHT22;16879;50.852;15.602;2022-09-12T08:33:41;15.50;99.90
30049;DHT22;16879;50.852;15.602;2022-09-12T08:36:15;15.50;99.90
30049;DHT22;16879;50.852;15.602;2022-09-12T08:38:44;15.50;99.90
30049;DHT22;16879;50.852;15.602;2022-09-12T08:49:12;15.70;99.90
30049;DHT22;16879;50.852;15.602;2022-09-12T08:51:40;15.70;99.90
30049;DHT22;16879;50.852;15.602;2022-09-12T08:54:22;15.80;99.90
30049;DHT22;16879;50.852;15.602;2022-09-12T08:56:50;15.80;99.90
30049;DHT22;16879;50.852;15.602;2022-09-12T08:59:19;15.90;99.90
30049;DHT22;16879;50.852;15.602;2022-09-12T09:01:45;15.80;99.90
30049;DHT22;16879;50.852;15.602;2022-09-12T09:04:35;15.90;99.90
30049;DHT22;16879;50.852;15.602;2022-09-12T09:18:46;15.70;99.90
30049;DHT22;16879;50.852;15.602;2022-09-12T09:21:30;15.60;99.90
30049;DHT22;16879;50.852;15.602;2022-09-12T09:24:11;15.50;99.90
30049;DHT22;16879;50.852;15.602;2022-09-12T09:29:15;15.50;99.90
30049;DHT22;16879;50.852;15.602;2022-09-12T09:31:46;15.50;99.90
30049;DHT22;16879;50.852;15.602;2022-09-12T09:34:19;15.50;99.90
30049;DHT22;16879;50.852;15.602;2022-09-12T09:39:48;15.70;99.90
30049;DHT22;16879;50.852;15.602;2022-09-12T09:44:46;15.70;99.90
30049;DHT22;16879;50.852;15.602;2022-09-12T09:47:14;15.70;99.90
30049;DHT22;16879;50.852;15.602;2022-09-12T09:49:41;15.70;99.90
30049;DHT22;16879;50.852;15.602;2022-09-12T09:52:11;15.70;99.90
30049;DHT22;16879;50.852;15.602;2022-09-12T09:54:57;15.80;99.90
30049;DHT22;16879;50.852;15.602;2022-09-12T10:05:49;15.60;99.90
30049;DHT22;16879;50.852;15.602;2022-09-12T10:08:27;15.60;99.90
30049;DHT22;16879;50.852;15.602;2022-09-12T10:11:17;15.60;99.90
30049;DHT22;16879;50.852;15.602;2022-09-12T10:16:28;15.60;99.90
30049;DHT22;16879;50.852;15.602;2022-09-12T10:19:04;15.60;99.90
30049;DHT22;16879;50.852;15.602;2022-09-12T10:21:32;15.60;99.90
30049;DHT22;16879;50.852;15.602;2022-09-12T10:24:22;15.60;99.90
30049;DHT22;16879;50.852;15.602;2022-09-12T10:26:54;15.60;99.90
30049;DHT22;16879;50.852;15.602;2022-09-12T10:29:32;15.60;99.90
30049;DHT22;16879;50.852;15.602;2022-09-12T10:32:06;15.50;99.90
30049;DHT22;16879;50.852;15.602;2022-09-12T10:34:37;15.50;99.90
30049;DHT22;16879;50.852;15.602;2022-09-12T10:37:06;15.50;99.90
30049;DHT22;16879;50.852;15.602;2022-09-12T10:39:34;15.50;99.90
30049;DHT22;16879;50.852;15.602;2022-09-12T10:42:02;15.60;99.90
30049;DHT22;16879;50.852;15.602;2022-09-12T10:44:31;15.60;99.90
30049;DHT22;16879;50.852;15.602;2022-09-12T10:47:00;15.50;99.90
30049;DHT22;16879;50.852;15.602;2022-09-12T10:49:44;15.40;99.90
30049;DHT22;16879;50.852;15.602;2022-09-12T10:52:23;15.50;99.90
30049;DHT22;16879;50.852;15.602;2022-09-12T10:54:53;15.40;99.90
30049;DHT22;16879;50.852;15.602;2022-09-12T10:57:48;15.40;99.90
30049;DHT22;16879;50.852;15.602;2022-09-12T11:00:18;15.40;99.90
30049;DHT22;16879;50.852;15.602;2022-09-12T11:03:22;15.30;99.90
30049;DHT22;16879;50.852;15.602;2022-09-12T11:05:58;15.20;99.90
30049;DHT22;16879;50.852;15.602;2022-09-12T11:22:16;15.50;99.90
30049;DHT22;16879;50.852;15.602;2022-09-12T11:27:46;15.60;99.90
30049;DHT22;16879;50.852;15.602;2022-09-12T11:30:17;15.60;99.90
30049;DHT22;16879;50.852;15.602;2022-09-12T11:33:22;15.70;99.90
30049;DHT22;16879;50.852;15.602;2022-09-12T11:35:50;15.80;99.90
30049;DHT22;16879;50.852;15.602;2022-09-12T11:41:07;16.10;99.90
30049;DHT22;16879;50.852;15.602;2022-09-12T11:46:43;16.60;99.90
30049;DHT22;16879;50.852;15.602;2022-09-12T11:54:25;16.90;99.90
30049;DHT22;16879;50.852;15.602;2022-09-12T12:05:24;17.00;99.90
30049;DHT22;16879;50.852;15.602;2022-09-12T12:07:59;17.10;99.90
30049;DHT22;16879;50.852;15.602;2022-09-12T12:10:46;17.20;99.90
30049;DHT22;16879;50.852;15.602;2022-09-12T12:15:50;17.30;99.90
30049;DHT22;16879;50.852;15.602;2022-09-12T12:18:28;17.30;99.90
30049;DHT22;16879;50.852;15.602;2022-09-12T12:20:55;17.30;99.90
30049;DHT22;16879;50.852;15.602;2022-09-12T12:25:54;17.30;99.90
30049;DHT22;16879;50.852;15.602;2022-09-12T12:28:54;17.20;99.90
30049;DHT22;16879;50.852;15.602;2022-09-12T12:31:22;17.20;99.90
30049;DHT22;16879;50.852;15.602;2022-09-12T12:36:43;17.10;99.90
30049;DHT22;16879;50.852;15.602;2022-09-12T12:44:45;16.90;99.90
30049;DHT22;16879;50.852;15.602;2022-09-12T12:47:49;16.80;99.90
30049;DHT22;16879;50.852;15.602;2022-09-12T12:55:14;16.70;99.90
30049;DHT22;16879;50.852;15.602;2022-09-12T13:01:20;16.80;99.90
30049;DHT22;16879;50.852;15.602;2022-09-12T13:03:55;16.80;99.90
30049;DHT22;16879;50.852;15.602;2022-09-12T13:09:08;16.90;99.90
30049;DHT22;16879;50.852;15.602;2022-09-12T13:11:42;17.00;99.90
30049;DHT22;16879;50.852;15.602;2022-09-12T13:17:07;17.10;99.90
30049;DHT22;16879;50.852;15.602;2022-09-12T13:19:38;17.10;99.90
30049;DHT22;16879;50.852;15.602;2022-09-12T13:22:08;17.20;99.90
30049;DHT22;16879;50.852;15.602;2022-09-12T13:24:45;17.20;99.90
30049;DHT22;16879;50.852;15.602;2022-09-12T13:27:21;17.30;99.90
30049;DHT22;16879;50.852;15.602;2022-09-12T13:29:47;17.40;99.90
30049;DHT22;16879;50.852;15.602;2022-09-12T13:32:15;17.50;99.90
30049;DHT22;16879;50.852;15.602;2022-09-12T13:35:25;17.60;1.00
30049;DHT22;16879;50.852;15.602;2022-09-12T13:38:36;17.70;1.00
30049;DHT22;16879;50.852;15.602;2022-09-12T13:43:51;17.80;1.00
30049;DHT22;16879;50.852;15.602;2022-09-12T13:46:37;17.90;1.00
30049;DHT22;16879;50.852;15.602;2022-09-12T13:49:23;18.10;1.00
30049;DHT22;16879;50.852;15.602;2022-09-12T13:52:19;18.20;1.00
30049;DHT22;16879;50.852;15.602;2022-09-12T13:54:49;18.50;1.00
30049;DHT22;16879;50.852;15.602;2022-09-12T13:57:34;18.80;99.90
30049;DHT22;16879;50.852;15.602;2022-09-12T14:00:14;19.10;99.90
30049;DHT22;16879;50.852;15.602;2022-09-12T14:02:45;19.50;99.90
30049;DHT22;16879;50.852;15.602;2022-09-12T14:05:24;19.70;99.90
30049;DHT22;16879;50.852;15.602;2022-09-12T14:10:43;19.60;99.90
30049;DHT22;16879;50.852;15.602;2022-09-12T14:15:48;19.60;99.90
30049;DHT22;16879;50.852;15.602;2022-09-12T14:20:50;19.30;99.90
30049;DHT22;16879;50.852;15.602;2022-09-12T14:23:32;19.20;1.00
30049;DHT22;16879;50.852;15.602;2022-09-12T14:26:01;19.00;1.00
30049;DHT22;16879;50.852;15.602;2022-09-12T14:28:31;19.00;1.00
30049;DHT22;16879;50.852;15.602;2022-09-12T14:31:03;18.90;1.00
30049;DHT22;16879;50.852;15.602;2022-09-12T14:33:45;18.80;1.00
30049;DHT22;16879;50.852;15.602;2022-09-12T14:36:34;18.70;1.00
30049;DHT22;16879;50.852;15.602;2022-09-12T14:39:14;18.60;1.00
30049;DHT22;16879;50.852;15.602;2022-09-12T14:44:17;18.40;1.00
30049;DHT22;16879;50.852;15.602;2022-09-12T14:49:16;18.40;1.00
30049;DHT22;16879;50.852;15.602;2022-09-12T14:51:58;18.60;1.00
30049;DHT22;16879;50.852;15.602;2022-09-12T14:56:59;19.20;1.00
30049;DHT22;16879;50.852;15.602;2022-09-12T15:02:30;19.70;99.90
30049;DHT22;16879;50.852;15.602;2022-09-12T15:07:57;20.00;99.90
30049;DHT22;16879;50.852;15.602;2022-09-12T15:15:37;20.90;16.50
30049;DHT22;16879;50.852;15.602;2022-09-12T15:18:03;21.00;1.00
30049;DHT22;16879;50.852;15.602;2022-09-12T15:20:37;20.80;1.00
30049;DHT22;16879;50.852;15.602;2022-09-12T15:23:10;20.70;14.50
30049;DHT22;16879;50.852;15.602;2022-09-12T15:25:38;20.80;1.00
30049;DHT22;16879;50.852;15.602;2022-09-12T15:28:19;20.90;1.00
30049;DHT22;16879;50.852;15.602;2022-09-12T15:30:47;20.80;1.00
30049;DHT22;16879;50.852;15.602;2022-09-12T15:33:16;20.80;57.10
30049;DHT22;16879;50.852;15.602;2022-09-12T15:35:43;20.60;1.00
30049;DHT22;16879;50.852;15.602;2022-09-12T15:38:10;20.50;15.40
30049;DHT22;16879;50.852;15.602;2022-09-12T15:40:36;20.40;1.00
30049;DHT22;16879;50.852;15.602;2022-09-12T15:43:02;20.30;40.50
30049;DHT22;16879;50.852;15.602;2022-09-12T15:45:31;20.30;99.90
30049;DHT22;16879;50.852;15.602;2022-09-12T15:47:57;20.30;99.90
30049;DHT22;16879;50.852;15.602;2022-09-12T15:50:23;20.20;99.90
30049;DHT22;16879;50.852;15.602;2022-09-12T15:52:49;20.10;99.90
30049;DHT22;16879;50.852;15.602;2022-09-12T15:55:23;20.00;99.90
30049;DHT22;16879;50.852;15.602;2022-09-12T15:57:50;19.90;99.90
30049;DHT22;16879;50.852;15.602;2022-09-12T16:00:16;19.70;99.90
30049;DHT22;16879;50.852;15.602;2022-09-12T16:02:44;19.50;99.90
30049;DHT22;16879;50.852;15.602;2022-09-12T16:05:14;19.40;99.90
30049;DHT22;16879;50.852;15.602;2022-09-12T16:07:42;19.30;99.90
30049;DHT22;16879;50.852;15.602;2022-09-12T16:10:13;19.20;99.90
30049;DHT22;16879;50.852;15.602;2022-09-12T16:15:06;18.90;1.00
30049;DHT22;16879;50.852;15.602;2022-09-12T16:17:32;18.80;1.00
30049;DHT22;16879;50.852;15.602;2022-09-12T16:27:16;18.20;1.00
30049;DHT22;16879;50.852;15.602;2022-09-12T16:29:42;18.20;1.00
30049;DHT22;16879;50.852;15.602;2022-09-12T16:39:26;17.60;1.00
30049;DHT22;16879;50.852;15.602;2022-09-12T16:41:52;17.50;1.00
30049;DHT22;16879;50.852;15.602;2022-09-12T16:46:44;17.30;1.00
30049;DHT22;16879;50.852;15.602;2022-09-12T16:49:10;17.20;1.00
30049;DHT22;16879;50.852;15.602;2022-09-12T16:51:36;17.10;1.00
30049;DHT22;16879;50.852;15.602;2022-09-12T16:54:02;17.00;1.00
30049;DHT22;16879;50.852;15.602;2022-09-12T16:56:28;16.90;1.00
30049;DHT22;16879;50.852;15.602;2022-09-12T16:58:54;16.80;1.00
30049;DHT22;16879;50.852;15.602;2022-09-12T17:01:22;16.70;1.00
30049;DHT22;16879;50.852;15.602;2022-09-12T17:03:52;16.60;1.00
30049;DHT22;16879;50.852;15.602;2022-09-12T17:06:19;16.50;1.00
30049;DHT22;16879;50.852;15.602;2022-09-12T17:08:48;16.30;1.00
30049;DHT22;16879;50.852;15.602;2022-09-12T17:11:19;16.20;1.00
30049;DHT22;16879;50.852;15.602;2022-09-12T17:13:50;16.00;1.00
30049;DHT22;16879;50.852;15.602;2022-09-12T17:18:42;15.60;1.00
30049;DHT22;16879;50.852;15.602;2022-09-12T17:21:10;15.50;1.00
30049;DHT22;16879;50.852;15.602;2022-09-12T17:23:36;15.40;1.00
30049;DHT22;16879;50.852;15.602;2022-09-12T17:26:03;15.20;1.00
30049;DHT22;16879;50.852;15.602;2022-09-12T17:28:29;15.10;1.00
30049;DHT22;16879;50.852;15.602;2022-09-12T17:30:56;15.00;1.00
30049;DHT22;16879;50.852;15.602;2022-09-12T17:33:23;14.90;1.00
30049;DHT22;16879;50.852;15.602;2022-09-12T17:35:50;14.70;1.00
30049;DHT22;16879;50.852;15.602;2022-09-12T17:38:16;14.60;1.00
30049;DHT22;16879;50.852;15.602;2022-09-12T17:40:43;14.50;1.00
30049;DHT22;16879;50.852;15.602;2022-09-12T17:43:11;14.40;1.00
30049;DHT22;16879;50.852;15.602;2022-09-12T17:45:37;14.30;1.00
30049;DHT22;16879;50.852;15.602;2022-09-12T17:48:03;14.20;1.00
30049;DHT22;16879;50.852;15.602;2022-09-12T17:50:36;14.10;1.00
30049;DHT22;16879;50.852;15.602;2022-09-12T17:55:28;13.90;1.00
30049;DHT22;16879;50.852;15.602;2022-09-12T17:57:59;13.90;1.00
30049;DHT22;16879;50.852;15.602;2022-09-12T18:00:26;13.80;1.00
30049;DHT22;16879;50.852;15.602;2022-09-12T18:03:13;13.80;1.00
30049;DHT22;16879;50.852;15.602;2022-09-12T18:05:47;13.70;1.00
30049;DHT22;16879;50.852;15.602;2022-09-12T18:08:13;13.60;1.00
30049;DHT22;16879;50.852;15.602;2022-09-12T18:10:39;13.60;1.00
30049;DHT22;16879;50.852;15.602;2022-09-12T18:15:33;13.50;3.50
30049;DHT22;16879;50.852;15.602;2022-09-12T18:17:59;13.40;3.70
30049;DHT22;16879;50.852;15.602;2022-09-12T18:20:25;13.40;1.50
30049;DHT22;16879;50.852;15.602;2022-09-12T18:22:51;13.30;1.30
30049;DHT22;16879;50.852;15.602;2022-09-12T18:27:43;13.20;5.90
30049;DHT22;16879;50.852;15.602;2022-09-12T18:30:10;13.20;7.50
30049;DHT22;16879;50.852;15.602;2022-09-12T18:32:37;13.10;10.50
30049;DHT22;16879;50.852;15.602;2022-09-12T18:35:04;13.00;10.60
30049;DHT22;16879;50.852;15.602;2022-09-12T18:37:30;13.00;21.30
30049;DHT22;16879;50.852;15.602;2022-09-12T18:39:57;12.90;21.30
30049;DHT22;16879;50.852;15.602;2022-09-12T18:42:26;12.80;19.90
30049;DHT22;16879;50.852;15.602;2022-09-12T18:49:44;12.70;20.30
30049;DHT22;16879;50.852;15.602;2022-09-12T18:57:02;12.50;29.20
30049;DHT22;16879;50.852;15.602;2022-09-12T19:01:54;12.50;36.20
30049;DHT22;16879;50.852;15.602;2022-09-12T19:04:20;12.40;29.80
30049;DHT22;16879;50.852;15.602;2022-09-12T19:06:47;12.40;27.70
30049;DHT22;16879;50.852;15.602;2022-09-12T19:09:15;12.30;26.90
30049;DHT22;16879;50.852;15.602;2022-09-12T19:11:43;12.30;37.50
30049;DHT22;16879;50.852;15.602;2022-09-12T19:14:14;12.20;42.90
30049;DHT22;16879;50.852;15.602;2022-09-12T19:19:06;12.10;47.40
30049;DHT22;16879;50.852;15.602;2022-09-12T19:21:33;12.00;46.20
30049;DHT22;16879;50.852;15.602;2022-09-12T19:24:02;12.00;69.50